createdAt,value
2023-02-06T00:01:47.440Z,103254.94
2023-02-06T00:04:15.766Z,103286.19
2023-02-06T00:06:44.083Z,103262.00
2023-02-06T00:12:01.990Z,103242.78
2023-02-06T00:14:30.111Z,103272.38
2023-02-06T00:17:01.608Z,103256.28
2023-02-06T00:19:29.364Z,103271.53
2023-02-06T00:21:57.148Z,103274.06
2023-02-06T00:24:25.301Z,103226.63
2023-02-06T00:26:53.102Z,103204.91
2023-02-06T00:29:20.823Z,103252.00
2023-02-06T00:31:49.362Z,103232.53
2023-02-06T00:34:18.651Z,103254.66
2023-02-06T00:36:46.405Z,103249.16
2023-02-06T00:39:14.735Z,103256.59
2023-02-06T00:41:42.450Z,103261.38
2023-02-06T00:44:10.310Z,103270.03
2023-02-06T00:46:38.624Z,103248.56
2023-02-06T00:49:06.380Z,103263.69
2023-02-06T00:51:39.303Z,103252.78
2023-02-06T00:54:07.734Z,103262.56
2023-02-06T00:56:36.287Z,103255.97
2023-02-06T00:59:04.727Z,103261.63
2023-02-06T01:01:32.496Z,103275.69
2023-02-06T01:04:00.223Z,103232.41
2023-02-06T01:06:28.591Z,103265.59
2023-02-06T01:08:57.709Z,103268.94
2023-02-06T01:11:27.531Z,103282.50
2023-02-06T01:13:56.066Z,103247.97
2023-02-06T01:16:25.642Z,103276.63
2023-02-06T01:18:53.442Z,103283.72
2023-02-06T01:21:23.947Z,103266.41
2023-02-06T01:23:53.679Z,103249.56
2023-02-06T01:26:24.698Z,103300.50
2023-02-06T01:28:52.485Z,103262.47
2023-02-06T01:31:22.745Z,103293.50
2023-02-06T01:33:52.141Z,103273.06
2023-02-06T01:36:20.982Z,103297.81
2023-02-06T01:38:49.930Z,103312.06
2023-02-06T01:41:20.016Z,103288.41
2023-02-06T01:44:15.604Z,103286.50
2023-02-06T01:46:46.465Z,103293.25
2023-02-06T01:49:18.304Z,103253.81
2023-02-06T01:51:47.706Z,103287.69
2023-02-06T01:54:16.713Z,103256.88
2023-02-06T01:56:49.627Z,103276.81
2023-02-06T01:59:19.136Z,103270.00
2023-02-06T02:01:47.311Z,103275.59
2023-02-06T02:04:20.836Z,103272.00
2023-02-06T02:06:58.738Z,103267.59
2023-02-06T02:09:28.005Z,103270.34
2023-02-06T02:11:55.809Z,103280.41
2023-02-06T02:14:25.536Z,103281.25
2023-02-06T02:17:00.871Z,103285.38
2023-02-06T02:22:52.171Z,103282.78
2023-02-06T02:43:29.764Z,103284.16
2023-02-06T03:00:36.918Z,103239.81
2023-02-06T03:03:08.704Z,103250.59
2023-02-06T03:06:03.895Z,103239.13
2023-02-06T03:08:44.818Z,103226.53
2023-02-06T03:14:07.486Z,103240.81
2023-02-06T03:16:48.836Z,103255.22
2023-02-06T03:19:22.001Z,103241.34
2023-02-06T03:21:50.978Z,103257.38
2023-02-06T03:24:25.160Z,103238.69
2023-02-06T03:26:57.992Z,103212.28
2023-02-06T03:29:30.006Z,103243.81
2023-02-06T03:32:03.587Z,103243.34
2023-02-06T03:34:38.634Z,103238.16
2023-02-06T03:37:06.787Z,103236.41
2023-02-06T03:39:35.065Z,103241.25
2023-02-06T03:42:06.044Z,103231.34
2023-02-06T03:44:37.509Z,103228.84
2023-02-06T07:42:15.512Z,103215.13
2023-02-06T07:47:47.017Z,103170.19
2023-02-06T08:06:46.154Z,103171.25
2023-02-06T08:32:02.117Z,103209.78
2023-02-06T08:38:08.730Z,103124.22
2023-02-06T08:41:17.158Z,103165.53
2023-02-06T08:47:38.836Z,103143.69
2023-02-06T10:01:44.109Z,103167.63
2023-02-06T10:04:43.624Z,103169.88
2023-02-06T10:19:46.690Z,103182.09
2023-02-06T10:22:22.454Z,103174.28
2023-02-06T10:25:06.256Z,103121.31
2023-02-06T10:27:35.902Z,103111.31
2023-02-06T10:30:03.670Z,103153.09
2023-02-06T10:32:46.538Z,103085.06
2023-02-06T10:35:25.928Z,103130.53
2023-02-06T10:38:34.336Z,103099.94
2023-02-06T10:43:48.605Z,103130.56
2023-02-06T10:46:36.786Z,103124.84
2023-02-06T10:49:12.544Z,103144.34
2023-02-06T10:51:44.744Z,103120.63
2023-02-06T10:54:17.958Z,103130.13
2023-02-06T10:56:48.803Z,103104.81
2023-02-06T10:59:25.078Z,103151.31
2023-02-06T11:01:58.159Z,103121.13
2023-02-06T11:04:34.388Z,103119.72
2023-02-06T11:07:09.441Z,103143.19
2023-02-06T11:09:37.977Z,103143.66
2023-02-06T11:12:12.956Z,103124.75
2023-02-06T11:14:42.056Z,103143.53
2023-02-06T11:17:11.476Z,103113.72
2023-02-06T11:19:44.758Z,103138.38
2023-02-06T11:22:16.198Z,103134.56
2023-02-06T11:25:03.188Z,103113.69
2023-02-06T11:27:33.331Z,103127.59
2023-02-06T11:30:07.462Z,103125.91
2023-02-06T11:32:40.650Z,103133.06
2023-02-06T11:35:23.125Z,103141.00
2023-02-06T11:37:54.081Z,103123.25
2023-02-06T11:40:28.291Z,103131.97
2023-02-06T11:43:18.558Z,103102.50
2023-02-06T11:45:48.584Z,103107.06
2023-02-06T11:48:37.248Z,103117.44
2023-02-06T11:51:05.916Z,103100.78
2023-02-06T11:53:36.003Z,103111.28
2023-02-06T11:56:08.068Z,103111.66
2023-02-06T11:58:36.032Z,103110.91
2023-02-06T12:01:06.999Z,103103.97
2023-02-06T12:03:38.534Z,103073.47
2023-02-06T12:06:13.168Z,103064.31
2023-02-06T12:08:47.920Z,103062.59
2023-02-06T12:11:22.478Z,103084.84
2023-02-06T12:13:59.315Z,103098.47
2023-02-06T12:16:31.496Z,103079.53
2023-02-06T12:19:04.295Z,103067.75
2023-02-06T12:21:44.520Z,103071.03
2023-02-06T12:24:28.076Z,103069.00
2023-02-06T12:26:59.795Z,103068.09
2023-02-06T12:29:37.186Z,103078.03
2023-02-06T12:32:19.743Z,103070.41
2023-02-06T12:34:55.535Z,103063.19
2023-02-06T12:37:35.930Z,103065.59
2023-02-06T12:40:08.940Z,103059.03
2023-02-06T12:42:43.447Z,103041.84
2023-02-06T12:45:32.696Z,103058.13
2023-02-06T12:48:11.932Z,103042.06
2023-02-06T12:50:46.706Z,103064.66
2023-02-06T12:53:19.948Z,103052.25
2023-02-06T12:56:00.506Z,103062.50
2023-02-06T12:58:43.855Z,103062.56
2023-02-06T13:01:34.350Z,103016.66
2023-02-06T13:04:14.735Z,103038.41
2023-02-06T13:06:57.365Z,103043.63
2023-02-06T13:09:34.361Z,103012.88
2023-02-06T13:12:18.806Z,103039.84
2023-02-06T13:14:49.140Z,103029.13
2023-02-06T13:17:26.127Z,103040.53
2023-02-06T13:20:03.414Z,103022.22
2023-02-06T13:22:48.724Z,103020.50
2023-02-06T13:26:03.982Z,103015.94
2023-02-06T13:29:02.555Z,103026.97
2023-02-06T13:31:35.698Z,103010.25
2023-02-06T13:34:19.474Z,103015.66
2023-02-06T13:36:52.526Z,103005.94
2023-02-06T13:39:39.429Z,102994.69
2023-02-06T13:42:34.088Z,102991.59
2023-02-06T13:45:06.543Z,103000.41
2023-02-06T13:48:00.703Z,102987.75
2023-02-06T13:50:41.232Z,103006.47
2023-02-06T13:53:29.114Z,102998.50
2023-02-06T13:56:10.103Z,103003.91
2023-02-06T13:58:41.974Z,102989.78
2023-02-06T14:01:22.851Z,102992.06
2023-02-06T14:03:52.267Z,102989.41
2023-02-06T14:06:45.364Z,102989.41
2023-02-06T14:09:34.198Z,102973.44
2023-02-06T14:12:29.140Z,102981.38
2023-02-06T14:15:12.102Z,102969.16
2023-02-06T14:17:57.157Z,102967.22
2023-02-06T14:20:34.553Z,102978.13
2023-02-06T14:23:13.329Z,102978.06
2023-02-06T14:25:49.718Z,102978.72
2023-02-06T14:28:27.322Z,102941.41
2023-02-06T14:31:05.895Z,102969.47
2023-02-06T14:33:55.190Z,102982.97
2023-02-06T14:36:44.765Z,102978.22
2023-02-06T14:39:40.364Z,102977.81
2023-02-06T14:42:13.050Z,102976.06
2023-02-06T14:44:42.871Z,102982.50
2023-02-06T14:47:19.172Z,102991.47
2023-02-06T14:49:50.649Z,102980.00
2023-02-06T14:52:21.998Z,102966.09
2023-02-06T14:54:50.139Z,102982.19
2023-02-06T14:57:23.934Z,102978.56
2023-02-06T14:59:54.514Z,102935.16
2023-02-06T15:02:34.625Z,102985.81
2023-02-06T15:05:05.873Z,102987.41
2023-02-06T15:07:35.185Z,102976.06
2023-02-06T15:10:09.238Z,102985.06
2023-02-06T15:12:37.939Z,102986.94
2023-02-06T15:15:17.599Z,102989.91
2023-02-06T15:17:56.204Z,102998.03
2023-02-06T15:20:31.132Z,102998.41
2023-02-06T15:23:16.676Z,102987.47
2023-02-06T15:25:59.920Z,102984.25
2023-02-06T15:28:30.514Z,102989.63
2023-02-06T15:31:01.152Z,102997.63
2023-02-06T15:33:33.572Z,102960.28
2023-02-06T15:36:04.675Z,102996.84
2023-02-06T15:38:34.529Z,102986.03
2023-02-06T15:41:06.311Z,102958.66
2023-02-06T15:43:35.221Z,102946.84
2023-02-06T15:46:05.603Z,102989.66
2023-02-06T15:48:37.427Z,102988.41
2023-02-06T15:51:19.739Z,102992.16
2023-02-06T15:56:41.319Z,102987.69
2023-02-06T15:59:16.234Z,102984.91
2023-02-06T16:01:44.791Z,102985.75
2023-02-06T16:04:18.412Z,102976.59
2023-02-06T16:06:48.864Z,102978.25
2023-02-06T16:09:22.169Z,102960.16
2023-02-06T16:11:53.270Z,102977.13
2023-02-06T16:14:25.259Z,102948.72
2023-02-06T16:17:02.156Z,102990.78
2023-02-06T16:19:42.687Z,103003.84
2023-02-06T16:22:23.393Z,102995.22
2023-02-06T16:24:53.577Z,102936.78
2023-02-06T16:27:24.258Z,103004.97
2023-02-06T16:29:54.242Z,102949.72
2023-02-06T16:35:15.257Z,102994.94
2023-02-06T16:37:45.005Z,102990.50
2023-02-06T16:40:12.946Z,102990.59
2023-02-06T16:42:44.195Z,102989.47
2023-02-06T16:45:21.180Z,102983.50
2023-02-06T16:47:49.228Z,102991.84
2023-02-06T16:50:17.599Z,102994.59
2023-02-06T16:52:51.515Z,102992.94
2023-02-06T16:55:23.434Z,102992.63
2023-02-06T16:57:54.577Z,102979.50
2023-02-06T17:00:25.096Z,102995.63
2023-02-06T17:02:53.546Z,102986.56
2023-02-06T17:05:22.686Z,102990.06
2023-02-06T17:07:51.906Z,102993.63
2023-02-06T17:10:23.064Z,102993.91
2023-02-06T17:12:51.509Z,102995.00
2023-02-06T17:15:20.144Z,102976.16
2023-02-06T17:17:48.826Z,102971.41
2023-02-06T17:20:25.886Z,102987.69
2023-02-06T17:22:55.495Z,102935.94
2023-02-06T17:25:23.400Z,102972.03
2023-02-06T17:27:51.216Z,102951.13
2023-02-06T17:30:21.718Z,102995.00
2023-02-06T17:32:50.080Z,102983.56
2023-02-06T17:35:18.240Z,102955.38
2023-02-06T17:37:46.073Z,102994.81
2023-02-06T17:40:19.941Z,102979.03
2023-02-06T17:42:51.395Z,102969.16
2023-02-06T17:45:19.484Z,102951.31
2023-02-06T17:47:47.381Z,102987.94
2023-02-06T17:50:17.962Z,103003.25
2023-02-06T17:52:45.921Z,103000.16
2023-02-06T17:55:16.007Z,102986.88
2023-02-06T17:57:44.377Z,102990.34
2023-02-06T18:00:15.636Z,103013.34
2023-02-06T18:02:44.709Z,102994.34
2023-02-06T18:05:12.681Z,102993.72
2023-02-06T18:07:41.338Z,103005.94
2023-02-06T18:10:11.152Z,103000.81
2023-02-06T18:12:40.281Z,103002.19
2023-02-06T18:15:08.811Z,103002.47
2023-02-06T18:17:36.659Z,102977.59
2023-02-06T18:20:05.839Z,102970.81
2023-02-06T18:22:40.952Z,103011.97
2023-02-06T18:25:09.736Z,102998.84
2023-02-06T18:27:38.062Z,102981.81
2023-02-06T18:30:09.125Z,102997.16
2023-02-06T18:32:38.313Z,103008.19
2023-02-06T18:35:07.385Z,102985.56
2023-02-06T18:37:36.428Z,102980.44
2023-02-06T18:40:04.577Z,102957.94
2023-02-06T18:42:50.668Z,102978.88
2023-02-06T18:45:19.944Z,102977.06
2023-02-06T18:47:48.383Z,102961.28
2023-02-06T18:50:17.051Z,102964.91
2023-02-06T18:52:44.790Z,102970.16
2023-02-06T18:55:12.599Z,102917.19
2023-02-06T18:57:40.889Z,102954.50
2023-02-06T19:00:10.866Z,102967.75
2023-02-06T19:02:40.142Z,102958.44
2023-02-06T19:05:08.433Z,102915.16
2023-02-06T19:07:36.369Z,102928.81
2023-02-06T19:10:10.088Z,102949.13
2023-02-06T19:12:39.346Z,102942.19
2023-02-06T19:15:07.904Z,102916.47
2023-02-06T19:17:39.092Z,102942.19
2023-02-06T19:20:10.134Z,102933.22
2023-02-06T19:22:39.326Z,102935.03
2023-02-06T19:25:12.078Z,102943.53
2023-02-06T19:27:41.229Z,102936.00
2023-02-06T19:30:10.245Z,102907.78
2023-02-06T19:32:38.025Z,102921.19
2023-02-06T19:35:06.905Z,102907.06
2023-02-06T19:37:36.041Z,102922.63
2023-02-06T19:40:03.795Z,102896.06
2023-02-06T19:42:32.038Z,102918.81
2023-02-06T19:44:59.862Z,102933.41
2023-02-06T19:47:27.610Z,102903.41
2023-02-06T19:49:56.008Z,102867.59
2023-02-06T19:52:24.012Z,102886.25
2023-02-06T19:54:53.357Z,102923.97
2023-02-06T19:57:21.604Z,102899.03
2023-02-06T19:59:49.355Z,102917.94
2023-02-06T20:02:17.885Z,102908.75
2023-02-06T20:04:46.365Z,102878.84
2023-02-06T20:07:14.468Z,102904.44
2023-02-06T20:15:47.463Z,102866.06
2023-02-06T20:21:56.082Z,102860.88
